Time;durP1;ratioP1;P1;durP2;ratioP2;P2;SDS_P1;SDS_P2;PMS_P1;PMS_P2;Temp;Humidity;BMP_temperature;BMP_pressure;BME280_temperature;BME280_humidity;BME280_pressure;Samples;Min_cycle;Max_cycle;Signal;HPM_P1;HPM_P2
2021/04/07 00:00:25;;;;;;;12.45;1.80;;;0.50;86.60;;;;;;5030027;28;20519;-47
2021/04/07 00:02:51;;;;;;;14.82;2.13;;;0.60;86.80;;;;;;5030609;28;20049;-45
2021/04/07 00:05:24;;;;;;;10.75;1.83;;;0.60;87.50;;;;;;5024078;28;20045;-46
2021/04/07 00:07:51;;;;;;;8.38;1.60;;;0.70;87.30;;;;;;5029487;28;20044;-46
2021/04/07 00:10:20;;;;;;;14.65;2.55;;;0.80;88.20;;;;;;5021623;28;20049;-49
2021/04/07 00:12:46;;;;;;;6.82;1.55;;;0.80;88.30;;;;;;5020572;28;20374;-47
2021/04/07 00:15:17;;;;;;;9.75;1.90;;;0.80;88.30;;;;;;5030209;28;20052;-47
2021/04/07 00:17:43;;;;;;;8.70;1.73;;;0.80;88.50;;;;;;5026629;28;20055;-47
2021/04/07 00:20:11;;;;;;;17.05;2.63;;;0.80;88.50;;;;;;5030466;28;20300;-46
2021/04/07 00:22:37;;;;;;;6.78;1.25;;;0.90;88.80;;;;;;5024003;28;20522;-48
2021/04/07 00:25:04;;;;;;;4.75;1.30;;;0.90;88.90;;;;;;5024891;28;20041;-48
2021/04/07 00:27:31;;;;;;;5.68;1.33;;;0.90;88.90;;;;;;5029334;28;21785;-46
2021/04/07 00:29:57;;;;;;;8.10;1.65;;;0.80;88.90;;;;;;5029522;28;20045;-47
2021/04/07 00:32:22;;;;;;;7.03;1.33;;;0.90;89.40;;;;;;5023611;28;20037;-45
2021/04/07 00:34:48;;;;;;;7.07;1.30;;;0.90;89.50;;;;;;5029304;28;20494;-46
2021/04/07 00:37:13;;;;;;;8.55;1.52;;;0.90;89.40;;;;;;5028820;28;20045;-47
2021/04/07 00:39:40;;;;;;;9.50;1.67;;;0.90;89.30;;;;;;5027424;28;20046;-45
2021/04/07 00:42:07;;;;;;;9.68;1.63;;;0.90;89.30;;;;;;5026559;28;20048;-46
2021/04/07 00:44:33;;;;;;;7.28;1.35;;;0.90;89.40;;;;;;5023064;28;20041;-46
2021/04/07 00:46:59;;;;;;;8.05;1.48;;;0.90;89.60;;;;;;5029369;28;20501;-45
2021/04/07 00:49:25;;;;;;;6.38;1.50;;;0.90;89.80;;;;;;5029709;28;20049;-46
2021/04/07 00:51:52;;;;;;;4.45;1.48;;;0.90;89.80;;;;;;5023584;28;20505;-48
2021/04/07 00:54:20;;;;;;;4.55;1.13;;;0.90;89.90;;;;;;5023479;28;20498;-45
2021/04/07 00:56:47;;;;;;;6.22;1.20;;;0.90;90.00;;;;;;5026832;28;20521;-47
2021/04/07 00:59:14;;;;;;;9.57;1.70;;;0.90;90.00;;;;;;5030783;28;20045;-45
2021/04/07 01:01:40;;;;;;;11.05;1.65;;;0.90;90.20;;;;;;5033314;28;20045;-47
2021/04/07 01:04:07;;;;;;;10.10;1.65;;;0.90;90.30;;;;;;5033062;28;20033;-46
2021/04/07 01:06:36;;;;;;;7.60;1.42;;;1.00;90.20;;;;;;5031611;28;20042;-47
2021/04/07 01:09:02;;;;;;;10.10;1.58;;;1.00;90.20;;;;;;5027385;28;20051;-45
2021/04/07 01:11:27;;;;;;;8.90;1.35;;;1.00;90.30;;;;;;5026496;28;20409;-48
2021/04/07 01:13:53;;;;;;;9.25;1.42;;;1.00;90.20;;;;;;5027608;28;20042;-45
2021/04/07 01:16:19;;;;;;;8.43;1.60;;;1.00;90.20;;;;;;5031716;28;20038;-45
2021/04/07 01:18:44;;;;;;;10.73;1.40;;;1.00;90.20;;;;;;5032645;28;20041;-46
2021/04/07 01:21:10;;;;;;;12.27;1.75;;;1.00;90.20;;;;;;5032998;28;20413;-47
2021/04/07 01:23:37;;;;;;;5.05;1.10;;;1.00;90.30;;;;;;5032498;28;20034;-47
2021/04/07 01:26:03;;;;;;;6.60;1.35;;;1.00;90.30;;;;;;5033358;28;20045;-46
2021/04/07 01:28:31;;;;;;;6.63;1.17;;;1.10;90.30;;;;;;5030200;28;20513;-46
2021/04/07 01:30:59;;;;;;;5.40;1.00;;;1.00;90.50;;;;;;5032876;28;20033;-47
2021/04/07 01:33:25;;;;;;;7.70;1.35;;;1.00;90.30;;;;;;5012237;28;20045;-46
2021/04/07 01:35:52;;;;;;;5.03;1.02;;;1.00;90.30;;;;;;5027695;28;20052;-45
2021/04/07 01:38:19;;;;;;;8.80;1.30;;;1.00;90.30;;;;;;5033041;28;20041;-47
2021/04/07 01:40:46;;;;;;;7.45;1.10;;;1.00;90.40;;;;;;5026759;28;20046;-48
2021/04/07 01:43:15;;;;;;;4.47;1.00;;;1.00;90.50;;;;;;5026056;28;20044;-49
2021/04/07 01:45:41;;;;;;;5.13;1.05;;;1.00;90.50;;;;;;5030911;28;20498;-47
2021/04/07 01:48:08;;;;;;;6.13;1.40;;;1.00;90.50;;;;;;5024799;28;20038;-46
2021/04/07 01:50:35;;;;;;;4.47;0.80;;;1.00;90.60;;;;;;5032743;28;20124;-47
2021/04/07 01:53:02;;;;;;;6.10;1.08;;;1.00;90.50;;;;;;5031236;28;20490;-46
2021/04/07 01:55:28;;;;;;;6.40;1.13;;;1.00;90.60;;;;;;5029675;28;20041;-49
2021/04/07 01:57:54;;;;;;;4.53;1.27;;;1.10;90.60;;;;;;5032294;28;20053;-46
2021/04/07 02:00:20;;;;;;;6.65;1.02;;;1.10;90.60;;;;;;5013479;28;20056;-47
2021/04/07 02:02:45;;;;;;;3.53;0.70;;;1.10;90.70;;;;;;5032101;28;20565;-50
2021/04/07 02:05:12;;;;;;;3.30;0.73;;;1.10;90.70;;;;;;5031624;28;20076;-47
2021/04/07 02:07:38;;;;;;;7.03;0.80;;;1.10;90.80;;;;;;5024502;28;20073;-46
2021/04/07 02:10:05;;;;;;;8.57;1.15;;;1.20;90.80;;;;;;5031172;28;20471;-47
2021/04/07 02:12:32;;;;;;;2.72;0.60;;;1.20;90.90;;;;;;5030847;28;20061;-46
2021/04/07 02:14:57;;;;;;;5.03;0.80;;;1.20;90.90;;;;;;5031532;28;20426;-47
2021/04/07 02:17:23;;;;;;;4.00;1.00;;;1.20;90.90;;;;;;5018624;28;20038;-47
2021/04/07 02:19:49;;;;;;;4.30;1.00;;;1.20;90.90;;;;;;5033757;28;20072;-48
2021/04/07 02:22:16;;;;;;;4.75;1.27;;;1.20;91.00;;;;;;5022046;28;20038;-49
2021/04/07 02:24:47;;;;;;;5.32;0.80;;;1.20;91.00;;;;;;5024259;28;20046;-47
2021/04/07 02:27:13;;;;;;;6.50;0.85;;;1.20;91.10;;;;;;5031229;28;20552;-47
2021/04/07 02:29:41;;;;;;;5.78;1.00;;;1.30;91.10;;;;;;5031734;28;20096;-50
2021/04/07 02:32:06;;;;;;;4.72;0.90;;;1.30;91.10;;;;;;5026319;28;20418;-47
2021/04/07 02:34:32;;;;;;;5.03;0.90;;;1.30;91.00;;;;;;5023550;28;20037;-46
2021/04/07 02:36:59;;;;;;;5.55;1.00;;;1.30;91.00;;;;;;5028338;28;20451;-47
2021/04/07 02:39:25;;;;;;;4.72;1.10;;;1.30;91.10;;;;;;5029821;28;20068;-47
2021/04/07 02:41:51;;;;;;;5.22;1.02;;;1.30;91.20;;;;;;5020519;28;20070;-46
2021/04/07 02:44:17;;;;;;;3.40;1.00;;;1.30;91.20;;;;;;5027898;28;20509;-47
2021/04/07 02:46:42;;;;;;;6.50;1.10;;;1.40;91.20;;;;;;5028791;28;20087;-48
2021/04/07 02:49:08;;;;;;;2.58;1.05;;;1.40;91.10;;;;;;5027481;28;20037;-47
2021/04/07 02:51:34;;;;;;;3.50;0.80;;;1.40;91.20;;;;;;5034724;28;20038;-47
2021/04/07 02:54:01;;;;;;;5.13;1.10;;;1.50;91.10;;;;;;5027323;28;20387;-47
2021/04/07 02:56:29;;;;;;;2.70;0.95;;;1.40;91.20;;;;;;5022968;28;20033;-47
2021/04/07 02:58:55;;;;;;;3.15;1.08;;;1.50;91.10;;;;;;5017244;28;20045;-47
2021/04/07 03:01:21;;;;;;;6.13;1.20;;;1.50;91.10;;;;;;5027205;28;20109;-46
2021/04/07 03:03:47;;;;;;;6.63;1.20;;;1.50;91.20;;;;;;5022160;28;20083;-46
2021/04/07 03:06:13;;;;;;;6.70;1.00;;;1.50;91.30;;;;;;5034099;28;20045;-47
2021/04/07 03:08:38;;;;;;;4.30;1.17;;;1.50;91.30;;;;;;5032071;28;20083;-48
2021/04/07 03:11:04;;;;;;;4.22;0.88;;;1.50;91.50;;;;;;5027993;28;20654;-48
2021/04/07 03:13:30;;;;;;;7.43;1.25;;;1.50;91.70;;;;;;5020933;28;20133;-46
2021/04/07 03:15:55;;;;;;;4.68;0.93;;;1.50;92.10;;;;;;5023592;28;20041;-50
2021/04/07 03:18:21;;;;;;;4.68;0.98;;;1.50;91.90;;;;;;5024009;28;20073;-50
2021/04/07 03:20:48;;;;;;;4.07;0.85;;;1.40;92.20;;;;;;5022471;28;20072;-48
2021/04/07 03:23:13;;;;;;;3.55;0.98;;;1.30;92.10;;;;;;5027646;28;20501;-47
2021/04/07 03:25:39;;;;;;;3.85;1.20;;;1.30;92.10;;;;;;5022600;28;20034;-46
2021/04/07 03:28:05;;;;;;;3.72;1.17;;;1.30;92.30;;;;;;5033370;28;20041;-48
2021/04/07 03:30:50;;;;;;;4.80;1.10;;;1.30;92.20;;;;;;5012340;28;20053;-46
2021/04/07 03:33:25;;;;;;;3.35;1.08;;;1.30;92.20;;;;;;5030450;28;20073;-48
2021/04/07 03:35:52;;;;;;;8.05;1.17;;;1.30;92.30;;;;;;5025168;28;20045;-47
2021/04/07 03:38:19;;;;;;;5.70;1.23;;;1.30;92.20;;;;;;5027749;28;20410;-46
2021/04/07 03:40:45;;;;;;;4.88;1.10;;;1.40;92.40;;;;;;5032127;28;20098;-49
2021/04/07 03:43:13;;;;;;;3.92;1.30;;;1.30;92.40;;;;;;5025242;28;20045;-47
2021/04/07 03:45:43;;;;;;;3.42;1.10;;;1.30;92.50;;;;;;5029538;28;20041;-47
2021/04/07 03:48:11;;;;;;;4.70;0.90;;;1.30;92.50;;;;;;5021412;28;20037;-49
2021/04/07 03:50:40;;;;;;;2.13;1.08;;;1.30;92.60;;;;;;5024947;28;20069;-47
2021/04/07 03:53:07;;;;;;;2.72;0.93;;;1.40;92.90;;;;;;5020355;28;20469;-46
2021/04/07 03:55:33;;;;;;;2.72;1.13;;;1.40;92.90;;;;;;5021941;28;20069;-47
2021/04/07 03:58:00;;;;;;;4.30;0.85;;;1.30;92.80;;;;;;5019900;28;20050;-49
2021/04/07 04:00:28;;;;;;;0.85;0.68;;;1.30;92.90;;;;;;5006284;28;20140;-46
2021/04/07 04:02:54;;;;;;;2.97;1.00;;;1.30;93.00;;;;;;5010794;28;20042;-47
2021/04/07 04:05:21;;;;;;;3.42;1.17;;;1.30;93.10;;;;;;5024214;28;20038;-49
2021/04/07 04:07:47;;;;;;;3.13;1.30;;;1.30;93.00;;;;;;5011871;28;20450;-47
2021/04/07 04:10:14;;;;;;;4.20;1.27;;;1.40;93.00;;;;;;5021434;28;20187;-49
2021/04/07 04:12:40;;;;;;;5.47;1.40;;;1.40;93.20;;;;;;5028770;28;20033;-47
2021/04/07 04:15:09;;;;;;;4.22;1.58;;;1.40;93.20;;;;;;5029160;28;20036;-47
2021/04/07 04:17:36;;;;;;;3.40;1.20;;;1.40;93.40;;;;;;5029151;28;20410;-47
2021/04/07 04:20:03;;;;;;;4.75;1.30;;;1.40;93.20;;;;;;5029568;28;20410;-46
2021/04/07 04:22:29;;;;;;;4.38;1.35;;;1.40;93.10;;;;;;5030314;28;20057;-47
2021/04/07 04:24:55;;;;;;;7.47;1.50;;;1.40;93.10;;;;;;5026227;28;20033;-48
2021/04/07 04:27:21;;;;;;;8.55;1.40;;;1.40;93.10;;;;;;5020400;28;20042;-46
2021/04/07 04:29:47;;;;;;;4.00;1.20;;;1.40;93.10;;;;;;5042247;28;20180;-47
2021/04/07 04:32:12;;;;;;;6.65;1.50;;;1.40;93.30;;;;;;5024737;28;20041;-47
2021/04/07 04:34:38;;;;;;;4.47;1.42;;;1.40;93.20;;;;;;5036294;28;20051;-47
2021/04/07 04:37:03;;;;;;;3.33;1.38;;;1.40;93.20;;;;;;5034487;28;20045;-51
2021/04/07 04:39:29;;;;;;;4.18;1.58;;;1.40;93.30;;;;;;5034179;28;20091;-46
2021/04/07 04:41:55;;;;;;;3.63;1.30;;;1.50;93.30;;;;;;5034569;28;20434;-47
2021/04/07 04:44:21;;;;;;;2.13;1.25;;;1.50;93.40;;;;;;5025722;28;20104;-48
2021/04/07 04:46:47;;;;;;;6.10;1.40;;;1.50;93.30;;;;;;5035272;28;20072;-47
2021/04/07 04:49:13;;;;;;;4.72;1.33;;;1.50;93.30;;;;;;5027611;28;20045;-49
2021/04/07 04:51:38;;;;;;;4.13;1.55;;;1.50;93.30;;;;;;5030921;28;20069;-47
2021/04/07 04:54:04;;;;;;;3.05;1.35;;;1.60;93.40;;;;;;5026809;28;20479;-48
2021/04/07 04:56:31;;;;;;;5.40;1.25;;;1.60;93.40;;;;;;5026719;28;20047;-48
2021/04/07 04:58:58;;;;;;;5.75;1.75;;;1.60;93.40;;;;;;5034137;28;20041;-48
2021/04/07 05:01:41;;;;;;;5.95;1.70;;;1.60;93.40;;;;;;5032061;28;20045;-47
2021/04/07 05:04:07;;;;;;;4.25;1.67;;;1.60;93.50;;;;;;5035723;28;20041;-48
2021/04/07 05:06:34;;;;;;;8.40;1.88;;;1.60;93.40;;;;;;5032983;28;20731;-50
2021/04/07 05:09:01;;;;;;;4.32;1.50;;;1.60;93.40;;;;;;5033947;28;20043;-46
2021/04/07 05:11:27;;;;;;;5.18;1.58;;;1.60;93.50;;;;;;5024738;28;20042;-46
2021/04/07 05:13:53;;;;;;;3.53;1.50;;;1.60;93.60;;;;;;5042773;28;20044;-47
2021/04/07 05:16:19;;;;;;;4.45;1.60;;;1.60;93.50;;;;;;5032825;28;20037;-49
2021/04/07 05:18:45;;;;;;;5.28;2.00;;;1.60;93.50;;;;;;5020359;28;20063;-51
2021/04/07 05:21:11;;;;;;;4.43;1.90;;;1.70;93.50;;;;;;5032063;28;20494;-48
2021/04/07 05:23:36;;;;;;;3.53;1.65;;;1.70;93.50;;;;;;5032001;28;20045;-49
2021/04/07 05:26:02;;;;;;;5.00;1.80;;;1.70;93.40;;;;;;5028927;28;20537;-48
2021/04/07 05:28:29;;;;;;;4.75;1.40;;;1.70;93.40;;;;;;5015037;28;20188;-51
2021/04/07 05:31:03;;;;;;;6.05;1.60;;;1.70;93.50;;;;;;5018592;28;20041;-49
2021/04/07 05:33:31;;;;;;;3.88;1.50;;;1.70;93.40;;;;;;5032629;28;20045;-46
2021/04/07 05:36:01;;;;;;;6.25;1.50;;;1.80;93.50;;;;;;5023319;28;20049;-49
2021/04/07 05:38:27;;;;;;;6.65;1.73;;;1.80;93.50;;;;;;5017894;28;20050;-46
2021/04/07 05:40:56;;;;;;;5.30;1.60;;;1.90;93.50;;;;;;5026910;28;20136;-47
2021/04/07 05:43:22;;;;;;;4.38;1.50;;;2.00;93.50;;;;;;5029906;28;20065;-49
2021/04/07 05:45:48;;;;;;;5.65;1.70;;;2.00;93.50;;;;;;5014600;28;20033;-48
2021/04/07 05:48:14;;;;;;;4.65;1.50;;;2.00;93.40;;;;;;5031447;28;20512;-49
2021/04/07 05:50:42;;;;;;;5.72;1.60;;;2.00;93.40;;;;;;5019780;28;20069;-49
2021/04/07 05:53:09;;;;;;;7.82;1.75;;;2.10;93.40;;;;;;5021221;28;20530;-49
2021/04/07 05:55:35;;;;;;;6.68;1.88;;;2.10;93.40;;;;;;5031438;28;20084;-47
2021/04/07 05:58:06;;;;;;;4.13;1.80;;;2.10;93.50;;;;;;5021506;28;20481;-48
2021/04/07 06:00:33;;;;;;;4.40;1.80;;;2.10;93.50;;;;;;5017538;28;20042;-50
2021/04/07 06:03:01;;;;;;;4.82;1.73;;;2.20;93.50;;;;;;5017959;28;20041;-50
2021/04/07 06:05:27;;;;;;;8.00;2.08;;;2.20;93.30;;;;;;5014108;28;20041;-48
2021/04/07 06:07:57;;;;;;;3.58;1.90;;;2.20;93.40;;;;;;5015114;28;20041;-47
2021/04/07 06:10:23;;;;;;;9.90;2.50;;;2.20;93.40;;;;;;5016259;28;20044;-47
2021/04/07 06:12:48;;;;;;;4.95;1.80;;;2.30;93.40;;;;;;5018556;28;20033;-47
2021/04/07 06:15:15;;;;;;;7.55;1.95;;;2.30;93.40;;;;;;5016768;28;20030;-49
2021/04/07 06:17:43;;;;;;;11.80;2.05;;;2.30;93.30;;;;;;5001267;28;20140;-46
2021/04/07 06:20:11;;;;;;;6.55;2.00;;;2.40;93.40;;;;;;5021120;28;20037;-46
2021/04/07 06:22:37;;;;;;;10.73;2.40;;;2.40;93.40;;;;;;5026439;28;20049;-51
2021/04/07 06:25:05;;;;;;;5.47;2.10;;;2.40;93.30;;;;;;5015749;28;20046;-45
2021/04/07 06:27:31;;;;;;;4.95;2.15;;;2.50;93.40;;;;;;5017705;28;20037;-48
2021/04/07 06:30:00;;;;;;;9.88;2.42;;;2.60;93.30;;;;;;5019891;28;20124;-47
2021/04/07 06:32:29;;;;;;;5.60;2.08;;;2.70;93.20;;;;;;5015228;28;20533;-48
2021/04/07 06:34:55;;;;;;;8.00;2.35;;;2.70;93.10;;;;;;5016846;28;20049;-48
2021/04/07 06:37:21;;;;;;;6.93;2.20;;;2.80;93.10;;;;;;5027031;28;20033;-48
2021/04/07 06:39:48;;;;;;;7.70;1.95;;;2.90;93.10;;;;;;5028817;28;20049;-47
2021/04/07 06:42:15;;;;;;;6.20;2.03;;;3.00;93.10;;;;;;5015615;28;20038;-48
2021/04/07 06:44:41;;;;;;;9.20;2.47;;;3.20;93.20;;;;;;5026072;28;20037;-47
2021/04/07 06:47:06;;;;;;;8.32;2.22;;;3.40;93.20;;;;;;5023297;28;20037;-48
2021/04/07 06:49:34;;;;;;;9.52;2.38;;;3.50;92.90;;;;;;5028086;28;20053;-49
2021/04/07 06:52:04;;;;;;;8.13;2.22;;;3.60;92.70;;;;;;5017714;28;20053;-47
2021/04/07 06:54:33;;;;;;;9.82;3.03;;;3.70;92.70;;;;;;5019427;28;20061;-47
2021/04/07 06:56:59;;;;;;;6.47;1.90;;;3.80;92.70;;;;;;5019808;28;20137;-49
2021/04/07 06:59:27;;;;;;;11.32;2.50;;;3.80;92.50;;;;;;5024420;28;20044;-48
2021/04/07 07:01:53;;;;;;;8.05;2.20;;;3.90;92.50;;;;;;5026029;28;20327;-48
2021/04/07 07:04:19;;;;;;;17.10;2.53;;;4.00;92.50;;;;;;5028457;28;20068;-51
2021/04/07 07:06:54;;;;;;;11.27;2.00;;;4.10;92.50;;;;;;5017225;28;20041;-49
2021/04/07 07:09:20;;;;;;;15.15;2.50;;;4.20;92.50;;;;;;5025667;28;20037;-49
2021/04/07 07:11:50;;;;;;;10.27;2.72;;;4.40;92.50;;;;;;5012854;28;20046;-51
2021/04/07 07:14:17;;;;;;;9.80;2.25;;;4.40;92.30;;;;;;5040235;28;20052;-51
2021/04/07 07:16:54;;;;;;;10.25;1.98;;;4.50;92.20;;;;;;5029040;28;20067;-51
2021/04/07 07:19:38;;;;;;;11.80;2.13;;;4.60;92.20;;;;;;5023207;28;20041;-48
2021/04/07 07:22:07;;;;;;;10.55;2.00;;;4.80;92.20;;;;;;5022918;28;20099;-50
2021/04/07 07:24:37;;;;;;;15.43;2.58;;;4.90;92.10;;;;;;5028538;28;20491;-47
2021/04/07 07:27:08;;;;;;;18.55;2.78;;;4.90;92.00;;;;;;5025242;28;20174;-47
2021/04/07 07:29:36;;;;;;;11.52;2.10;;;5.00;91.90;;;;;;5021494;28;20099;-48
2021/04/07 07:32:08;;;;;;;9.68;2.15;;;5.10;91.80;;;;;;5030924;28;20073;-50
2021/04/07 07:34:34;;;;;;;15.73;2.28;;;5.20;91.80;;;;;;5029057;28;20528;-47
2021/04/07 07:37:03;;;;;;;13.45;2.60;;;5.40;91.70;;;;;;5024928;28;20040;-46
2021/04/07 07:39:36;;;;;;;13.60;2.67;;;5.60;91.70;;;;;;5026953;28;20076;-46
2021/04/07 07:42:08;;;;;;;13.02;2.47;;;5.80;91.60;;;;;;5043746;28;20064;-47
2021/04/07 07:44:37;;;;;;;18.27;2.90;;;5.90;91.30;;;;;;5030810;28;20095;-47
2021/04/07 07:47:18;;;;;;;15.25;2.47;;;5.90;91.00;;;;;;5029026;28;20403;-46
2021/04/07 07:50:14;;;;;;;17.55;2.55;;;5.90;90.80;;;;;;5028538;28;20068;-47
2021/04/07 07:52:42;;;;;;;14.50;2.05;;;5.90;90.40;;;;;;5023908;28;20053;-47
2021/04/07 07:55:19;;;;;;;9.00;2.10;;;5.90;90.40;;;;;;5026163;28;20047;-47
2021/04/07 07:57:55;;;;;;;13.52;2.10;;;5.90;90.30;;;;;;5029091;28;20041;-47
2021/04/07 08:00:25;;;;;;;12.27;2.42;;;6.00;90.30;;;;;;5021536;28;20038;-47
2021/04/07 08:02:52;;;;;;;17.02;2.35;;;6.20;90.30;;;;;;5022162;28;20047;-48
2021/04/07 08:05:18;;;;;;;13.90;2.60;;;6.20;90.00;;;;;;5029987;28;20095;-48
2021/04/07 08:07:44;;;;;;;8.73;2.00;;;6.10;90.00;;;;;;5029906;28;20088;-47
2021/04/07 08:10:11;;;;;;;6.55;1.77;;;6.00;90.20;;;;;;5030187;28;20048;-47
2021/04/07 08:12:41;;;;;;;12.45;1.83;;;6.00;90.50;;;;;;5016379;28;20041;-48
2021/04/07 08:15:11;;;;;;;12.40;1.90;;;5.90;90.70;;;;;;5030080;28;20072;-46
2021/04/07 08:17:37;;;;;;;11.88;1.65;;;5.90;90.70;;;;;;5026466;28;20042;-46
2021/04/07 08:20:04;;;;;;;8.50;1.42;;;5.80;91.00;;;;;;5026905;28;20535;-47
2021/04/07 08:22:32;;;;;;;11.18;1.73;;;5.80;90.90;;;;;;5024654;28;20132;-46
2021/04/07 08:24:58;;;;;;;10.10;1.35;;;5.70;91.00;;;;;;5021074;28;20064;-47
2021/04/07 08:27:28;;;;;;;8.95;1.48;;;5.70;91.20;;;;;;5026726;28;20116;-45
2021/04/07 08:29:53;;;;;;;8.90;1.42;;;5.70;90.90;;;;;;5030366;28;20053;-47
2021/04/07 08:32:20;;;;;;;8.73;1.45;;;5.80;90.90;;;;;;5028671;28;20088;-46
2021/04/07 08:34:47;;;;;;;7.85;1.30;;;5.80;90.70;;;;;;5029422;28;20064;-46
2021/04/07 08:37:23;;;;;;;10.30;3.03;;;5.90;90.80;;;;;;5027083;28;20064;-48
2021/04/07 08:39:49;;;;;;;10.75;3.38;;;6.00;90.90;;;;;;5028705;28;20045;-48
2021/04/07 08:42:15;;;;;;;11.30;1.80;;;6.20;90.90;;;;;;5023367;28;20042;-47
2021/04/07 08:44:45;;;;;;;8.52;1.67;;;6.10;90.60;;;;;;5022859;28;20784;-46
2021/04/07 08:47:31;;;;;;;9.35;1.50;;;6.00;90.40;;;;;;5020411;28;20066;-47
2021/04/07 08:50:05;;;;;;;7.75;1.83;;;5.90;90.00;;;;;;5018464;28;20045;-46
2021/04/07 08:52:31;;;;;;;12.20;2.03;;;5.80;90.40;;;;;;5029661;28;20282;-47
2021/04/07 08:55:00;;;;;;;11.73;2.20;;;5.70;90.40;;;;;;5022579;28;20072;-46
2021/04/07 08:57:32;;;;;;;13.20;2.30;;;5.50;90.60;;;;;;5035366;28;20049;-47
2021/04/07 08:59:59;;;;;;;12.20;2.25;;;5.50;90.90;;;;;;5029821;28;20583;-46
2021/04/07 09:02:26;;;;;;;10.27;2.15;;;5.50;91.10;;;;;;5029923;28;20049;-46
2021/04/07 09:05:05;;;;;;;14.57;2.30;;;5.60;91.40;;;;;;5029734;28;20755;-46
2021/04/07 09:07:45;;;;;;;14.68;2.60;;;5.80;91.60;;;;;;5025829;28;20130;-45
2021/04/07 09:10:20;;;;;;;14.32;2.35;;;5.90;91.50;;;;;;5027451;28;20052;-46
2021/04/07 09:12:48;;;;;;;22.73;2.72;;;6.00;91.20;;;;;;5021198;28;20037;-47
2021/04/07 09:15:26;;;;;;;21.02;2.97;;;6.00;90.90;;;;;;5016096;28;20163;-47
2021/04/07 09:17:56;;;;;;;21.65;3.38;;;6.00;90.80;;;;;;5030283;28;20540;-47
2021/04/07 09:20:41;;;;;;;24.88;3.40;;;6.00;90.90;;;;;;5025704;28;20037;-47
2021/04/07 09:23:25;;;;;;;18.15;3.40;;;6.10;90.60;;;;;;5029415;28;20130;-46
2021/04/07 09:25:58;;;;;;;22.42;3.60;;;6.20;90.70;;;;;;5046807;28;20041;-45
2021/04/07 09:28:32;;;;;;;23.67;3.47;;;6.30;90.30;;;;;;5027344;28;20073;-47
2021/04/07 09:31:05;;;;;;;18.92;3.60;;;6.50;90.60;;;;;;5014118;28;20065;-47
2021/04/07 09:33:31;;;;;;;25.95;3.70;;;6.60;90.30;;;;;;5031761;28;20556;-45
2021/04/07 09:35:59;;;;;;;26.70;4.35;;;6.70;90.40;;;;;;5029115;28;20030;-48
2021/04/07 09:38:30;;;;;;;33.63;3.90;;;6.70;90.20;;;;;;5011672;28;20089;-46
2021/04/07 09:41:08;;;;;;;31.50;4.20;;;6.80;89.50;;;;;;5032740;28;20047;-48
2021/04/07 09:43:34;;;;;;;28.65;3.83;;;6.80;89.70;;;;;;5032500;28;20064;-46
2021/04/07 09:46:00;;;;;;;23.17;3.85;;;6.80;89.80;;;;;;5025387;28;20073;-46
2021/04/07 09:48:50;;;;;;;18.08;3.50;;;6.90;88.60;;;;;;5029162;28;20040;-46
2021/04/07 09:51:23;;;;;;;17.73;2.70;;;6.70;85.70;;;;;;5028958;28;20405;-47
2021/04/07 09:53:50;;;;;;;17.27;2.67;;;6.70;87.10;;;;;;5038197;28;20067;-46
2021/04/07 09:56:15;;;;;;;19.23;3.20;;;6.50;86.80;;;;;;5031361;28;20045;-46
2021/04/07 09:58:50;;;;;;;20.70;3.33;;;6.60;86.00;;;;;;5024211;28;20425;-48
2021/04/07 10:01:17;;;;;;;20.02;3.28;;;6.60;85.90;;;;;;5028918;28;20037;-46
2021/04/07 10:03:55;;;;;;;17.48;3.15;;;6.70;86.80;;;;;;5026019;28;20107;-47
2021/04/07 10:06:24;;;;;;;20.23;3.40;;;6.90;85.50;;;;;;5030714;28;20042;-47
2021/04/07 10:09:26;;;;;;;15.77;3.03;;;7.00;84.20;;;;;;5032448;28;20100;-46
2021/04/07 10:11:52;;;;;;;20.10;3.43;;;7.10;83.40;;;;;;5024791;28;20046;-48
2021/04/07 10:14:18;;;;;;;16.80;3.05;;;7.10;82.70;;;;;;5033063;28;20357;-46
2021/04/07 10:16:44;;;;;;;19.20;3.40;;;7.20;82.90;;;;;;5026168;28;20175;-46
2021/04/07 10:19:11;;;;;;;21.63;3.00;;;7.30;81.50;;;;;;5030805;28;20080;-45
2021/04/07 10:21:44;;;;;;;14.25;2.90;;;7.30;81.40;;;;;;5035879;28;20068;-45
2021/04/07 10:24:15;;;;;;;15.77;3.35;;;7.30;81.10;;;;;;5032567;28;20034;-46
2021/04/07 10:26:44;;;;;;;19.90;3.22;;;7.20;81.30;;;;;;5033067;28;20051;-46
2021/04/07 10:29:25;;;;;;;21.17;3.25;;;7.20;80.60;;;;;;5030016;28;20041;-46
2021/04/07 10:31:55;;;;;;;17.63;3.60;;;7.00;81.40;;;;;;5028971;28;20080;-45
2021/04/07 10:34:34;;;;;;;19.88;3.47;;;7.00;81.70;;;;;;5024316;28;20124;-46
2021/04/07 10:37:03;;;;;;;16.73;2.65;;;6.90;82.60;;;;;;5027770;28;20038;-45
2021/04/07 10:39:37;;;;;;;17.38;3.10;;;6.70;82.30;;;;;;5031311;28;20038;-47
2021/04/07 10:42:03;;;;;;;18.17;3.10;;;6.40;83.40;;;;;;5030985;28;20041;-47
2021/04/07 10:44:31;;;;;;;18.77;3.47;;;6.20;84.60;;;;;;5031608;28;20054;-47
2021/04/07 10:46:57;;;;;;;17.08;2.95;;;6.10;86.20;;;;;;5024446;28;20052;-47
2021/04/07 10:49:24;;;;;;;18.73;3.33;;;6.10;87.20;;;;;;5029448;28;20033;-47
2021/04/07 10:52:04;;;;;;;23.15;3.50;;;6.20;87.70;;;;;;5021157;28;20088;-46
2021/04/07 10:54:31;;;;;;;17.85;3.22;;;6.30;87.90;;;;;;5028767;28;20444;-49
2021/04/07 10:57:00;;;;;;;23.33;2.75;;;6.40;87.20;;;;;;5030184;28;20501;-50
2021/04/07 10:59:31;;;;;;;18.58;2.60;;;6.50;86.90;;;;;;5030858;28;20063;-47
2021/04/07 11:01:58;;;;;;;15.18;2.88;;;6.50;86.00;;;;;;5028259;28;20434;-47
2021/04/07 11:04:27;;;;;;;20.88;2.70;;;6.50;85.60;;;;;;5026332;28;20041;-48
2021/04/07 11:07:00;;;;;;;12.60;2.92;;;6.50;85.60;;;;;;5029055;28;20067;-51
2021/04/07 11:09:31;;;;;;;14.13;2.58;;;6.60;84.50;;;;;;5028204;28;20399;-48
2021/04/07 11:11:59;;;;;;;14.75;2.30;;;6.60;84.80;;;;;;5028365;28;20056;-51
2021/04/07 11:14:24;;;;;;;16.08;2.30;;;6.60;83.10;;;;;;5029861;28;20099;-48
2021/04/07 11:17:01;;;;;;;11.93;2.85;;;6.70;82.80;;;;;;5029532;28;20041;-50
2021/04/07 11:19:34;;;;;;;17.85;2.55;;;6.80;82.50;;;;;;5030971;28;20040;-47
2021/04/07 11:22:01;;;;;;;16.27;2.70;;;6.90;82.50;;;;;;5020447;28;20049;-48
2021/04/07 11:24:26;;;;;;;16.13;2.38;;;7.10;83.00;;;;;;5026521;28;20131;-47
2021/04/07 11:26:53;;;;;;;12.38;3.05;;;7.20;80.70;;;;;;5022731;28;20553;-47
2021/04/07 11:29:19;;;;;;;15.98;2.78;;;7.30;80.50;;;;;;5029761;28;20075;-48
2021/04/07 11:31:48;;;;;;;13.35;2.50;;;7.30;78.80;;;;;;5011238;28;20069;-47
2021/04/07 11:34:16;;;;;;;15.15;2.58;;;7.40;80.20;;;;;;5012139;28;20041;-47
2021/04/07 11:39:22;;;;;;;16.95;2.83;;;7.50;78.80;;;;;;5027508;28;20120;-47
2021/04/07 11:44:25;;;;;;;14.70;2.53;;;7.60;76.80;;;;;;5026130;28;20041;-47
2021/04/07 11:46:52;;;;;;;17.02;2.80;;;7.60;72.70;;;;;;5029486;28;20042;-48
2021/04/07 11:49:18;;;;;;;16.55;2.55;;;7.60;72.50;;;;;;5030188;28;20483;-48
2021/04/07 11:51:44;;;;;;;11.95;2.22;;;7.30;74.60;;;;;;5028983;28;20051;-48
2021/04/07 11:54:12;;;;;;;15.75;2.55;;;6.90;73.80;;;;;;5014871;28;20046;-47
2021/04/07 11:56:42;;;;;;;16.30;2.28;;;6.60;75.70;;;;;;5016385;28;20033;-47
2021/04/07 11:59:08;;;;;;;14.23;2.22;;;6.40;77.70;;;;;;5017724;28;20510;-47
2021/04/07 12:01:34;;;;;;;18.38;2.80;;;6.10;79.30;;;;;;5029697;28;20095;-47
2021/04/07 12:04:00;;;;;;;16.08;3.03;;;6.10;80.50;;;;;;5026453;28;20042;-47
2021/04/07 12:06:27;;;;;;;15.13;2.42;;;6.10;81.50;;;;;;5021639;28;20092;-50
2021/04/07 12:08:53;;;;;;;16.05;2.72;;;6.10;83.10;;;;;;5016655;28;20081;-46
2021/04/07 12:11:19;;;;;;;15.38;2.85;;;6.30;84.10;;;;;;5030044;28;20506;-47
2021/04/07 12:13:44;;;;;;;17.20;3.17;;;6.40;84.90;;;;;;5029938;28;20056;-48
2021/04/07 12:16:10;;;;;;;18.50;3.88;;;6.50;84.40;;;;;;5027215;28;20041;-47
2021/04/07 12:18:36;;;;;;;12.15;2.08;;;6.50;83.80;;;;;;5022423;28;20107;-47
2021/04/07 12:21:02;;;;;;;11.18;1.98;;;6.10;78.20;;;;;;5026078;28;20038;-48
2021/04/07 12:23:27;;;;;;;14.95;2.58;;;5.80;79.30;;;;;;5026915;28;20136;-47
2021/04/07 12:25:53;;;;;;;13.30;1.80;;;5.60;80.90;;;;;;5019018;28;20052;-48
2021/04/07 12:28:19;;;;;;;10.15;1.65;;;5.50;82.00;;;;;;5026038;28;20125;-47
2021/04/07 12:30:57;;;;;;;10.65;2.45;;;5.50;83.30;;;;;;5019417;28;20440;-47
2021/04/07 12:33:29;;;;;;;12.10;2.33;;;5.60;83.40;;;;;;5030446;28;20044;-47
2021/04/07 12:35:56;;;;;;;11.30;2.47;;;5.70;83.60;;;;;;5030331;28;20045;-48
2021/04/07 12:38:22;;;;;;;15.48;2.42;;;5.70;83.20;;;;;;5029941;28;20037;-46
2021/04/07 12:40:50;;;;;;;11.77;2.47;;;5.80;83.00;;;;;;5019562;28;20053;-47
2021/04/07 12:43:15;;;;;;;16.15;2.55;;;5.70;84.10;;;;;;5026367;28;20052;-46
2021/04/07 12:45:41;;;;;;;12.95;2.45;;;5.80;83.70;;;;;;5031720;28;20046;-47
2021/04/07 12:48:08;;;;;;;17.08;2.90;;;5.90;85.60;;;;;;5029712;28;20048;-48
2021/04/07 12:50:36;;;;;;;10.80;2.35;;;6.00;85.70;;;;;;5028201;28;20403;-48
2021/04/07 12:53:03;;;;;;;13.32;2.50;;;6.10;84.40;;;;;;5037419;28;20525;-47
2021/04/07 12:55:30;;;;;;;13.90;3.00;;;6.10;82.70;;;;;;5046849;28;20042;-48
2021/04/07 12:57:58;;;;;;;14.80;2.60;;;6.20;82.40;;;;;;5028336;28;20056;-47
2021/04/07 13:00:25;;;;;;;17.08;2.63;;;6.30;80.30;;;;;;5028613;28;20456;-47
2021/04/07 13:02:50;;;;;;;12.18;2.22;;;6.30;79.10;;;;;;5029255;28;20041;-47